Time;durP1;ratioP1;P1;durP2;ratioP2;P2;SDS_P1;SDS_P2;PMS_P1;PMS_P2;Temp;Humidity;BMP_temperature;BMP_pressure;BME280_temperature;BME280_humidity;BME280_pressure;Samples;Min_cycle;Max_cycle;Signal;HPM_P1;HPM_P2
2023/12/11 00:02:13;;;;;;;11.80;9.82;;;;;;;;;;5023809;28;20519;-76
2023/12/11 00:04:43;;;;;;;19.33;18.08;;;;;;;;;;5021727;28;20052;-76
2023/12/11 00:07:14;;;;;;;16.45;15.05;;;;;;;;;;5023049;28;20049;-74
2023/12/11 00:09:45;;;;;;;20.17;18.80;;;;;;;;;;5023590;28;20049;-75
2023/12/11 00:12:16;;;;;;;19.45;17.75;;;;;;;;;;5022039;28;20054;-73
2023/12/11 00:14:46;;;;;;;17.45;16.17;;;;;;;;;;5023322;28;20045;-74
2023/12/11 00:17:16;;;;;;;15.25;13.80;;;;;;;;;;5022241;28;20060;-74
2023/12/11 00:19:47;;;;;;;16.73;15.73;;;;;;;;;;5023290;28;20073;-74
2023/12/11 00:22:17;;;;;;;17.38;16.13;;;;;;;;;;5023777;28;20535;-76
2023/12/11 00:24:47;;;;;;;10.10;9.57;;;;;;;;;;5024466;28;20045;-75
2023/12/11 00:27:19;;;;;;;16.05;14.70;;;;;;;;;;5033036;28;20060;-75
2023/12/11 00:29:49;;;;;;;14.05;12.93;;;;;;;;;;5043841;28;20045;-73
2023/12/11 00:32:20;;;;;;;16.30;14.95;;;;;;;;;;5043257;28;20047;-73
2023/12/11 00:34:50;;;;;;;17.38;15.98;;;;;;;;;;5042590;28;20048;-74
2023/12/11 00:37:21;;;;;;;15.65;14.52;;;;;;;;;;5043243;28;20053;-75
2023/12/11 00:39:52;;;;;;;15.63;14.63;;;;;;;;;;5042722;28;20053;-74
2023/12/11 00:42:22;;;;;;;14.82;13.85;;;;;;;;;;5043184;28;20052;-74
2023/12/11 00:44:52;;;;;;;19.40;17.92;;;;;;;;;;5042297;28;20037;-75
2023/12/11 00:47:22;;;;;;;12.35;11.43;;;;;;;;;;5042795;28;20672;-75
2023/12/11 00:49:53;;;;;;;19.88;18.63;;;;;;;;;;5042732;28;20056;-75
2023/12/11 00:52:23;;;;;;;13.90;12.65;;;;;;;;;;5042863;28;20431;-75
2023/12/11 00:54:53;;;;;;;15.65;14.52;;;;;;;;;;5042038;28;20076;-74
2023/12/11 00:57:24;;;;;;;15.48;14.45;;;;;;;;;;5042519;28;20045;-73
2023/12/11 00:59:55;;;;;;;15.45;14.45;;;;;;;;;;5042521;28;20045;-72
2023/12/11 01:02:26;;;;;;;18.23;17.00;;;;;;;;;;5042751;28;20049;-75
2023/12/11 01:04:57;;;;;;;13.93;13.02;;;;;;;;;;5042067;28;20037;-74
2023/12/11 01:07:29;;;;;;;14.13;13.30;;;;;;;;;;5042452;28;20056;-74
2023/12/11 01:10:01;;;;;;;16.42;15.32;;;;;;;;;;5042008;28;20056;-75
2023/12/11 01:12:34;;;;;;;13.18;12.27;;;;;;;;;;5041581;28;20045;-75
2023/12/11 01:15:05;;;;;;;14.73;13.73;;;;;;;;;;5041686;28;20052;-73
2023/12/11 01:17:36;;;;;;;16.48;15.30;;;;;;;;;;5043153;28;20048;-73
2023/12/11 01:20:10;;;;;;;15.50;14.13;;;;;;;;;;5042463;28;20055;-74
2023/12/11 01:22:41;;;;;;;14.32;13.27;;;;;;;;;;5042494;28;20044;-72
2023/12/11 01:25:11;;;;;;;15.80;14.15;;;;;;;;;;5042624;28;20048;-74
2023/12/11 01:27:41;;;;;;;16.38;14.85;;;;;;;;;;5040341;28;20045;-74
2023/12/11 01:30:12;;;;;;;15.90;14.73;;;;;;;;;;5039414;28;20048;-71
2023/12/11 01:32:43;;;;;;;12.88;11.90;;;;;;;;;;5042345;28;20049;-72
2023/12/11 01:35:14;;;;;;;11.85;10.80;;;;;;;;;;5042762;28;20045;-73
2023/12/11 01:37:45;;;;;;;14.27;13.48;;;;;;;;;;5042555;28;20496;-74
2023/12/11 01:40:15;;;;;;;15.23;14.20;;;;;;;;;;5042087;28;20771;-75
2023/12/11 01:42:46;;;;;;;15.20;14.10;;;;;;;;;;5042520;28;20075;-75
2023/12/11 01:45:19;;;;;;;13.70;12.73;;;;;;;;;;5041176;28;20060;-73
2023/12/11 01:47:48;;;;;;;15.10;13.80;;;;;;;;;;5042567;28;20059;-75
2023/12/11 01:50:20;;;;;;;14.13;13.25;;;;;;;;;;5042701;28;20053;-75
2023/12/11 01:52:51;;;;;;;16.50;15.30;;;;;;;;;;5042213;28;20045;-74
2023/12/11 01:55:21;;;;;;;12.25;11.20;;;;;;;;;;5042208;28;20057;-73
2023/12/11 01:57:53;;;;;;;13.57;12.77;;;;;;;;;;5041698;28;20045;-73
2023/12/11 02:00:24;;;;;;;16.38;15.23;;;;;;;;;;5042172;28;20052;-73
2023/12/11 02:02:55;;;;;;;13.93;12.98;;;;;;;;;;5041883;28;20048;-78
2023/12/11 02:05:25;;;;;;;14.18;12.95;;;;;;;;;;5042106;28;20492;-74
2023/12/11 02:07:55;;;;;;;12.68;11.82;;;;;;;;;;5041761;28;20048;-73
2023/12/11 02:10:26;;;;;;;13.65;12.77;;;;;;;;;;5042252;28;20053;-74
2023/12/11 02:12:57;;;;;;;14.23;13.30;;;;;;;;;;5042197;28;20060;-75
2023/12/11 02:15:40;;;;;;;12.70;11.68;;;;;;;;;;5041695;28;20048;-74
2023/12/11 02:18:13;;;;;;;12.88;11.73;;;;;;;;;;5039828;28;20048;-74
2023/12/11 02:20:44;;;;;;;13.63;12.60;;;;;;;;;;5040778;28;20057;-75
2023/12/11 02:23:24;;;;;;;15.68;14.73;;;;;;;;;;5041319;28;20045;-75
2023/12/11 02:26:12;;;;;;;11.52;10.50;;;;;;;;;;5041681;28;20045;-74
2023/12/11 02:28:42;;;;;;;;;;;;;;;;;;5042072;28;20056;-75
2023/12/11 02:31:12;;;;;;;13.77;12.82;;;;;;;;;;5041091;28;19925;-74
2023/12/11 02:33:42;;;;;;;15.20;13.82;;;;;;;;;;5040716;28;20059;-74
2023/12/11 02:36:13;;;;;;;16.23;14.82;;;;;;;;;;5041034;28;20534;-74
2023/12/11 02:38:44;;;;;;;15.57;14.07;;;;;;;;;;5042790;28;20060;-73
2023/12/11 02:41:15;;;;;;;15.65;14.25;;;;;;;;;;5043640;28;20060;-72
2023/12/11 02:43:45;;;;;;;15.07;13.95;;;;;;;;;;5045039;28;20500;-73
2023/12/11 02:46:16;;;;;;;15.77;14.57;;;;;;;;;;5044499;28;20053;-74
2023/12/11 02:48:47;;;;;;;13.07;12.00;;;;;;;;;;5044803;28;20056;-72
2023/12/11 02:51:18;;;;;;;15.95;14.93;;;;;;;;;;5044340;28;20057;-73
2023/12/11 02:53:47;;;;;;;14.95;13.68;;;;;;;;;;5044284;28;20067;-73
2023/12/11 02:56:18;;;;;;;14.88;13.82;;;;;;;;;;5044460;28;20057;-73
2023/12/11 02:58:48;;;;;;;14.65;13.73;;;;;;;;;;5045045;28;20048;-76
2023/12/11 03:01:20;;;;;;;16.02;14.70;;;;;;;;;;5044080;28;20095;-74
2023/12/11 03:03:51;;;;;;;15.50;14.43;;;;;;;;;;5044404;28;20057;-74
2023/12/11 03:06:21;;;;;;;16.83;15.38;;;;;;;;;;5043672;28;20049;-75
2023/12/11 03:08:52;;;;;;;14.70;13.80;;;;;;;;;;5044207;28;20048;-75
2023/12/11 03:11:23;;;;;;;16.23;14.93;;;;;;;;;;5044029;28;20056;-75
2023/12/11 03:13:54;;;;;;;12.77;11.77;;;;;;;;;;5043859;28;20405;-75
2023/12/11 03:16:24;;;;;;;12.63;11.80;;;;;;;;;;5044899;28;20048;-75
2023/12/11 03:18:54;;;;;;;14.38;13.45;;;;;;;;;;5044166;28;20052;-75
2023/12/11 03:21:25;;;;;;;15.60;14.50;;;;;;;;;;5044026;28;20048;-75
2023/12/11 03:23:54;;;;;;;16.58;15.52;;;;;;;;;;5044072;28;20040;-73
2023/12/11 03:26:25;;;;;;;14.88;13.85;;;;;;;;;;5043621;28;20049;-74
2023/12/11 03:28:55;;;;;;;14.75;13.65;;;;;;;;;;5043726;28;20059;-75
2023/12/11 03:31:26;;;;;;;16.58;15.23;;;;;;;;;;5043717;28;20060;-74
2023/12/11 03:33:56;;;;;;;17.50;16.15;;;;;;;;;;5043487;28;20037;-75
2023/12/11 03:36:26;;;;;;;15.90;14.63;;;;;;;;;;5043975;28;20519;-74
2023/12/11 03:38:56;;;;;;;12.85;11.85;;;;;;;;;;5043616;28;20415;-73
2023/12/11 03:41:26;;;;;;;15.57;14.55;;;;;;;;;;5043741;28;20499;-73
2023/12/11 03:43:57;;;;;;;15.00;13.77;;;;;;;;;;5042816;28;20052;-72
2023/12/11 03:46:28;;;;;;;16.73;15.52;;;;;;;;;;5043472;28;20095;-74
2023/12/11 03:48:58;;;;;;;17.42;15.70;;;;;;;;;;5042596;28;20049;-73
2023/12/11 03:51:28;;;;;;;11.35;10.43;;;;;;;;;;5041902;28;20855;-73
2023/12/11 03:54:00;;;;;;;16.65;15.60;;;;;;;;;;5041729;28;20052;-75
2023/12/11 03:56:30;;;;;;;16.48;15.00;;;;;;;;;;5043246;28;20049;-73
2023/12/11 03:59:00;;;;;;;14.48;13.35;;;;;;;;;;5043517;28;20523;-74
2023/12/11 04:01:31;;;;;;;14.93;13.48;;;;;;;;;;5043392;28;20500;-75
2023/12/11 04:04:02;;;;;;;16.73;15.23;;;;;;;;;;5041779;28;20049;-74
2023/12/11 04:06:32;;;;;;;16.95;15.38;;;;;;;;;;5043390;28;20048;-74
2023/12/11 04:09:04;;;;;;;17.23;15.75;;;;;;;;;;5042318;28;20044;-73
2023/12/11 04:11:36;;;;;;;16.33;15.02;;;;;;;;;;5042184;28;20049;-75
2023/12/11 04:14:06;;;;;;;10.63;9.93;;;;;;;;;;5043092;28;20795;-73
2023/12/11 04:16:41;;;;;;;15.07;13.73;;;;;;;;;;5042708;28;20075;-74
2023/12/11 04:19:12;;;;;;;15.02;13.57;;;;;;;;;;5041586;28;20045;-73
2023/12/11 04:21:42;;;;;;;15.55;14.55;;;;;;;;;;5043067;28;20053;-74
2023/12/11 04:24:13;;;;;;;16.10;14.80;;;;;;;;;;5041680;28;20049;-75
2023/12/11 04:26:43;;;;;;;16.50;15.23;;;;;;;;;;5042808;28;20052;-75
2023/12/11 04:29:13;;;;;;;14.10;13.00;;;;;;;;;;5042746;28;20103;-73
2023/12/11 04:31:42;;;;;;;13.98;11.25;;;;;;;;;;5041242;28;20863;-74
2023/12/11 04:34:13;;;;;;;15.15;13.82;;;;;;;;;;5042118;28;20107;-74
2023/12/11 04:36:43;;;;;;;16.55;15.07;;;;;;;;;;5041484;28;20048;-75
2023/12/11 04:39:14;;;;;;;15.95;14.60;;;;;;;;;;5042505;28;20055;-74
2023/12/11 04:41:44;;;;;;;14.73;13.73;;;;;;;;;;5042612;28;20055;-74
2023/12/11 04:44:14;;;;;;;16.83;14.23;;;;;;;;;;5043302;28;20060;-73
2023/12/11 04:46:45;;;;;;;14.30;13.02;;;;;;;;;;5042482;28;20044;-75
2023/12/11 04:49:15;;;;;;;15.23;14.15;;;;;;;;;;5042199;28;20052;-73
2023/12/11 04:51:46;;;;;;;16.13;15.05;;;;;;;;;;5042043;28;20048;-74
2023/12/11 04:54:16;;;;;;;15.68;14.60;;;;;;;;;;5042252;28;20049;-74
2023/12/11 04:56:46;;;;;;;16.05;12.07;;;;;;;;;;5042714;28;20045;-73
2023/12/11 04:59:16;;;;;;;15.43;14.07;;;;;;;;;;5042066;28;20051;-74
2023/12/11 05:01:46;;;;;;;14.35;13.30;;;;;;;;;;5041465;28;20045;-75
2023/12/11 05:04:16;;;;;;;14.05;12.63;;;;;;;;;;5042195;28;20053;-73
2023/12/11 05:06:47;;;;;;;14.82;13.60;;;;;;;;;;5042030;28;20052;-74
2023/12/11 05:09:17;;;;;;;16.83;14.98;;;;;;;;;;5041867;28;20037;-74
2023/12/11 05:11:47;;;;;;;14.30;13.30;;;;;;;;;;5041892;28;20056;-73
2023/12/11 05:14:17;;;;;;;10.82;9.90;;;;;;;;;;5041647;28;20412;-75
2023/12/11 05:16:48;;;;;;;16.67;15.18;;;;;;;;;;5041767;28;20053;-74
2023/12/11 05:19:18;;;;;;;13.95;12.63;;;;;;;;;;5041499;28;20053;-74
2023/12/11 05:21:48;;;;;;;16.10;8.80;;;;;;;;;;5041783;28;21135;-73
2023/12/11 05:24:19;;;;;;;11.05;10.05;;;;;;;;;;5041601;28;20451;-74
2023/12/11 05:26:49;;;;;;;14.30;13.25;;;;;;;;;;5041403;28;20037;-72
2023/12/11 05:29:20;;;;;;;9.85;9.10;;;;;;;;;;5041517;28;20408;-75
2023/12/11 05:31:50;;;;;;;17.20;15.75;;;;;;;;;;5041751;28;20112;-73
2023/12/11 05:34:20;;;;;;;11.57;10.77;;;;;;;;;;5042206;28;20411;-73
2023/12/11 05:36:50;;;;;;;13.32;12.05;;;;;;;;;;5042251;28;20052;-75
2023/12/11 05:39:21;;;;;;;14.85;14.05;;;;;;;;;;5041047;28;20097;-72
2023/12/11 05:41:52;;;;;;;15.48;14.50;;;;;;;;;;5041419;28;20052;-75
2023/12/11 05:44:22;;;;;;;15.40;14.27;;;;;;;;;;5041108;28;20044;-74
2023/12/11 05:46:53;;;;;;;16.58;15.15;;;;;;;;;;5040960;28;20056;-75
2023/12/11 05:49:23;;;;;;;14.35;13.35;;;;;;;;;;5040866;28;20052;-72
2023/12/11 05:51:53;;;;;;;14.05;12.85;;;;;;;;;;5041571;28;20056;-75
2023/12/11 05:54:23;;;;;;;14.88;13.43;;;;;;;;;;5041146;28;20056;-72
2023/12/11 05:56:54;;;;;;;15.98;13.35;;;;;;;;;;5041243;28;20064;-75
2023/12/11 05:59:24;;;;;;;14.15;13.20;;;;;;;;;;5040740;28;20096;-75
2023/12/11 06:01:55;;;;;;;15.23;14.20;;;;;;;;;;5040751;28;20373;-73
2023/12/11 06:04:26;;;;;;;15.02;14.10;;;;;;;;;;5041914;28;20056;-73
2023/12/11 06:06:56;;;;;;;15.98;14.73;;;;;;;;;;5041114;28;20045;-73
2023/12/11 06:09:26;;;;;;;14.90;13.85;;;;;;;;;;5041900;28;20779;-73
2023/12/11 06:11:56;;;;;;;14.35;13.48;;;;;;;;;;5040698;28;20048;-72
2023/12/11 06:14:30;;;;;;;11.15;10.20;;;;;;;;;;5045930;28;20415;-74
2023/12/11 06:17:00;;;;;;;11.65;10.77;;;;;;;;;;5044803;28;21153;-75
2023/12/11 06:19:30;;;;;;;15.35;14.35;;;;;;;;;;5045015;28;20056;-74
2023/12/11 06:22:00;;;;;;;16.00;14.90;;;;;;;;;;5043651;28;20451;-75
2023/12/11 06:24:31;;;;;;;15.60;14.70;;;;;;;;;;5045279;28;20036;-72
2023/12/11 06:27:01;;;;;;;15.82;14.93;;;;;;;;;;5045210;28;20519;-73
2023/12/11 06:29:31;;;;;;;14.20;13.18;;;;;;;;;;5044847;28;20049;-72
2023/12/11 06:32:02;;;;;;;13.40;12.45;;;;;;;;;;5045193;28;20423;-73
2023/12/11 06:34:33;;;;;;;17.08;15.75;;;;;;;;;;5045033;28;20052;-72
2023/12/11 06:37:05;;;;;;;15.82;14.80;;;;;;;;;;5044750;28;20056;-73
2023/12/11 06:39:36;;;;;;;17.17;16.05;;;;;;;;;;5044958;28;20068;-73
2023/12/11 06:42:08;;;;;;;12.32;11.02;;;;;;;;;;5044971;28;20874;-72
2023/12/11 06:44:38;;;;;;;17.83;16.20;;;;;;;;;;5044646;28;20534;-75
2023/12/11 06:47:10;;;;;;;17.90;16.80;;;;;;;;;;5043427;28;20067;-73
2023/12/11 06:49:42;;;;;;;17.98;16.65;;;;;;;;;;5044860;28;20041;-74
2023/12/11 06:52:14;;;;;;;17.05;15.77;;;;;;;;;;5045542;28;20049;-75
2023/12/11 06:54:45;;;;;;;13.93;12.95;;;;;;;;;;5043640;28;20420;-75
2023/12/11 06:57:16;;;;;;;18.58;17.15;;;;;;;;;;5044281;28;20400;-73
2023/12/11 06:59:47;;;;;;;20.30;19.00;;;;;;;;;;5044056;28;20487;-74
2023/12/11 07:02:17;;;;;;;21.00;17.55;;;;;;;;;;5044207;28;20037;-74
2023/12/11 07:04:47;;;;;;;15.88;15.05;;;;;;;;;;5044503;28;20052;-72
2023/12/11 07:07:18;;;;;;;15.85;14.85;;;;;;;;;;5044513;28;20064;-73
2023/12/11 07:09:48;;;;;;;19.27;18.08;;;;;;;;;;5044310;28;20049;-74
2023/12/11 07:12:19;;;;;;;16.77;15.48;;;;;;;;;;5044005;28;20049;-72
2023/12/11 07:14:49;;;;;;;13.52;12.75;;;;;;;;;;5043143;28;20428;-74
2023/12/11 07:17:19;;;;;;;19.13;17.85;;;;;;;;;;5044107;28;20045;-75
2023/12/11 07:19:50;;;;;;;20.27;18.48;;;;;;;;;;5044084;28;20049;-75
2023/12/11 07:22:21;;;;;;;15.95;14.45;;;;;;;;;;5044098;28;20416;-74
2023/12/11 07:24:52;;;;;;;18.85;13.75;;;;;;;;;;5042990;28;20412;-74
2023/12/11 07:27:22;;;;;;;19.55;15.98;;;;;;;;;;5044019;28;20045;-74
2023/12/11 07:29:53;;;;;;;19.52;18.42;;;;;;;;;;5044221;28;20064;-75
2023/12/11 07:32:24;;;;;;;18.60;17.40;;;;;;;;;;5043295;28;20053;-73
2023/12/11 07:34:54;;;;;;;16.58;15.60;;;;;;;;;;5042839;28;20059;-74
2023/12/11 07:37:25;;;;;;;17.85;16.85;;;;;;;;;;5043538;28;20060;-73
2023/12/11 07:39:55;;;;;;;17.80;16.52;;;;;;;;;;5043530;28;20072;-74
2023/12/11 07:42:25;;;;;;;18.08;16.98;;;;;;;;;;5042400;28;20056;-73
2023/12/11 07:44:56;;;;;;;15.20;14.30;;;;;;;;;;5043418;28;20045;-75
2023/12/11 07:47:27;;;;;;;16.08;15.15;;;;;;;;;;5043711;28;20056;-75
2023/12/11 07:49:58;;;;;;;17.45;16.27;;;;;;;;;;5043398;28;20049;-74
2023/12/11 07:52:32;;;;;;;17.55;16.38;;;;;;;;;;5043180;28;20048;-75
2023/12/11 07:55:04;;;;;;;17.80;16.60;;;;;;;;;;5043060;28;20051;-72
2023/12/11 07:57:36;;;;;;;17.85;16.48;;;;;;;;;;5043491;28;20065;-73
2023/12/11 08:00:07;;;;;;;17.42;16.00;;;;;;;;;;5043186;28;20045;-72
2023/12/11 08:02:38;;;;;;;18.35;17.25;;;;;;;;;;5043271;28;20049;-74
2023/12/11 08:05:10;;;;;;;17.95;16.92;;;;;;;;;;5043452;28;20045;-72
2023/12/11 08:07:41;;;;;;;16.60;15.45;;;;;;;;;;5044001;28;20049;-73
2023/12/11 08:10:12;;;;;;;13.15;12.35;;;;;;;;;;5044208;28;20403;-72
2023/12/11 08:12:42;;;;;;;16.50;15.43;;;;;;;;;;5043149;28;20052;-75
2023/12/11 08:15:12;;;;;;;12.65;11.75;;;;;;;;;;5043398;28;20393;-73
2023/12/11 08:17:42;;;;;;;16.80;15.80;;;;;;;;;;5042238;28;20802;-73
2023/12/11 08:20:16;;;;;;;16.67;15.73;;;;;;;;;;5043115;28;20053;-73
2023/12/11 08:22:49;;;;;;;16.48;15.27;;;;;;;;;;5042339;28;20056;-72
2023/12/11 08:25:20;;;;;;;16.02;14.90;;;;;;;;;;5042950;28;20045;-74
2023/12/11 08:27:50;;;;;;;18.50;17.05;;;;;;;;;;5041592;28;20534;-73
2023/12/11 08:30:20;;;;;;;16.52;15.52;;;;;;;;;;5043061;28;20044;-75
2023/12/11 08:32:51;;;;;;;16.92;15.65;;;;;;;;;;5043226;28;20808;-77
2023/12/11 08:35:21;;;;;;;17.45;16.27;;;;;;;;;;5042721;28;20055;-75
2023/12/11 08:37:53;;;;;;;16.58;14.85;;;;;;;;;;5042431;28;20069;-74
2023/12/11 08:40:23;;;;;;;17.48;16.38;;;;;;;;;;5042915;28;20618;-74
2023/12/11 08:42:54;;;;;;;17.98;16.70;;;;;;;;;;5043134;28;20044;-73
2023/12/11 08:45:25;;;;;;;18.17;16.33;;;;;;;;;;5040729;28;20503;-72
2023/12/11 08:47:55;;;;;;;18.52;16.27;;;;;;;;;;5043167;28;20053;-74
2023/12/11 08:50:26;;;;;;;17.58;16.42;;;;;;;;;;5042946;28;20053;-72
2023/12/11 09:04:16;;;;;;;12.50;11.57;;;;;;;;;;5079470;27;20423;-74
2023/12/11 09:06:47;;;;;;;11.85;10.98;;;;;;;;;;5079332;28;20059;-74
2023/12/11 09:09:17;;;;;;;13.02;12.05;;;;;;;;;;5079270;28;20079;-74
2023/12/11 09:11:48;;;;;;;18.25;16.75;;;;;;;;;;5079090;28;20052;-72
2023/12/11 09:14:20;;;;;;;17.98;16.15;;;;;;;;;;5079063;28;20510;-74
2023/12/11 09:16:50;;;;;;;20.35;18.70;;;;;;;;;;5079647;28;20048;-74
2023/12/11 09:19:21;;;;;;;22.25;19.75;;;;;;;;;;5078720;28;20048;-73
2023/12/11 09:22:04;;;;;;;23.55;21.50;;;;;;;;;;5078806;28;20052;-73
2023/12/11 09:24:35;;;;;;;20.95;19.35;;;;;;;;;;5079070;28;20044;-77
2023/12/11 09:27:05;;;;;;;23.58;21.75;;;;;;;;;;5078575;28;20511;-73
2023/12/11 09:29:36;;;;;;;23.45;21.73;;;;;;;;;;5079269;28;20044;-73
2023/12/11 09:32:06;;;;;;;11.90;10.77;;;;;;;;;;5078997;28;20388;-74
2023/12/11 09:34:36;;;;;;;17.65;13.75;;;;;;;;;;5078419;28;20044;-83
2023/12/11 09:37:07;;;;;;;17.27;15.52;;;;;;;;;;5079186;28;20061;-72
2023/12/11 09:39:39;;;;;;;15.80;14.38;;;;;;;;;;5078126;28;20044;-73
2023/12/11 09:42:10;;;;;;;14.95;13.68;;;;;;;;;;5078595;28;20040;-78
2023/12/11 09:44:46;;;;;;;13.40;12.57;;;;;;;;;;5077540;28;20060;-73
2023/12/11 09:47:24;;;;;;;19.55;17.70;;;;;;;;;;5078952;28;20044;-72
2023/12/11 09:49:55;;;;;;;19.65;17.55;;;;;;;;;;5078485;28;20865;-74
2023/12/11 09:52:27;;;;;;;15.63;14.15;;;;;;;;;;5078682;28;20118;-74
2023/12/11 09:54:57;;;;;;;18.00;16.42;;;;;;;;;;5076623;28;20056;-75
2023/12/11 09:57:28;;;;;;;19.42;17.98;;;;;;;;;;5078532;28;20040;-74
2023/12/11 09:59:59;;;;;;;30.65;13.60;;;;;;;;;;5078758;28;20044;-73
2023/12/11 10:02:32;;;;;;;14.07;13.18;;;;;;;;;;5088984;28;20047;-74
2023/12/11 10:05:09;;;;;;;12.10;11.20;;;;;;;;;;5086537;28;20052;-83
2023/12/11 10:07:43;;;;;;;19.60;18.38;;;;;;;;;;5085856;28;20044;-75
2023/12/11 10:10:20;;;;;;;13.30;12.48;;;;;;;;;;5083237;28;20524;-75
2023/12/11 10:12:51;;;;;;;13.27;12.25;;;;;;;;;;5084631;28;20044;-73
2023/12/11 10:15:30;;;;;;;12.82;11.77;;;;;;;;;;5084422;28;20173;-78
2023/12/11 10:18:13;;;;;;;11.93;11.10;;;;;;;;;;5084920;28;20052;-74
2023/12/11 10:20:54;;;;;;;13.57;12.77;;;;;;;;;;5085053;28;20040;-73
2023/12/11 10:23:25;;;;;;;13.63;12.73;;;;;;;;;;5084437;28;20044;-73
2023/12/11 10:26:05;;;;;;;14.25;13.43;;;;;;;;;;5084774;28;20043;-73
2023/12/11 10:28:36;;;;;;;12.98;11.93;;;;;;;;;;5084228;28;20052;-73
2023/12/11 10:31:06;;;;;;;17.13;15.88;;;;;;;;;;5084608;28;20032;-78
2023/12/11 10:33:52;;;;;;;8.77;8.15;;;;;;;;;;5084965;28;20402;-74
2023/12/11 10:36:23;;;;;;;12.80;11.85;;;;;;;;;;5085491;28;20052;-74
2023/12/11 10:39:08;;;;;;;13.25;12.15;;;;;;;;;;5084286;28;20044;-74
2023/12/11 10:41:38;;;;;;;15.07;14.05;;;;;;;;;;5084240;28;20048;-73
2023/12/11 10:44:08;;;;;;;13.30;12.35;;;;;;;;;;5083814;28;20055;-74
2023/12/11 10:46:56;;;;;;;17.10;15.82;;;;;;;;;;5083920;28;20043;-74
2023/12/11 10:49:26;;;;;;;12.00;10.95;;;;;;;;;;5083559;28;20044;-74
2023/12/11 10:51:57;;;;;;;11.57;10.73;;;;;;;;;;5084389;28;20052;-74
2023/12/11 10:54:27;;;;;;;9.65;9.00;;;;;;;;;;5083639;28;20061;-73
2023/12/11 10:57:03;;;;;;;12.10;11.10;;;;;;;;;;5084345;28;20056;-74
2023/12/11 10:59:38;;;;;;;11.20;10.35;;;;;;;;;;5083797;28;20044;-73
2023/12/11 11:02:10;;;;;;;14.88;9.57;;;;;;;;;;5083855;28;20052;-74
2023/12/11 11:04:42;;;;;;;10.15;9.32;;;;;;;;;;5084243;28;20047;-80
2023/12/11 11:07:18;;;;;;;12.43;11.23;;;;;;;;;;5084633;28;20063;-73
2023/12/11 11:09:58;;;;;;;11.82;10.80;;;;;;;;;;5083858;28;20047;-76
2023/12/11 11:12:34;;;;;;;10.18;9.40;;;;;;;;;;5083440;28;20052;-74
2023/12/11 11:15:08;;;;;;;9.25;8.43;;;;;;;;;;5082380;28;20048;-74
2023/12/11 11:18:05;;;;;;;12.48;11.32;;;;;;;;;;5083543;28;20569;-74
2023/12/11 11:20:37;;;;;;;11.43;10.52;;;;;;;;;;5083373;28;20048;-79
2023/12/11 11:23:17;;;;;;;11.15;10.50;;;;;;;;;;5083910;28;20044;-74
2023/12/11 11:25:52;;;;;;;13.38;12.40;;;;;;;;;;5083664;28;20055;-74
2023/12/11 11:28:42;;;;;;;12.77;11.82;;;;;;;;;;5083284;28;20051;-74
2023/12/11 11:31:14;;;;;;;12.07;11.30;;;;;;;;;;5083296;28;20048;-75
2023/12/11 11:33:58;;;;;;;13.20;12.07;;;;;;;;;;5082874;28;20043;-74
2023/12/11 11:36:46;;;;;;;11.23;10.32;;;;;;;;;;5082809;28;20051;-74
2023/12/11 11:39:16;;;;;;;11.80;10.95;;;;;;;;;;5082771;28;20059;-74
2023/12/11 11:41:46;;;;;;;12.93;11.95;;;;;;;;;;5082901;28;20044;-74
2023/12/11 11:44:17;;;;;;;18.48;8.95;;;;;;;;;;5083941;28;20398;-73
2023/12/11 11:46:58;;;;;;;10.35;9.45;;;;;;;;;;5082975;28;20041;-78
2023/12/11 11:49:36;;;;;;;12.48;11.65;;;;;;;;;;5082530;28;20051;-73
2023/12/11 11:52:12;;;;;;;10.88;9.90;;;;;;;;;;5082727;28;20894;-74
2023/12/11 11:54:43;;;;;;;12.95;12.15;;;;;;;;;;5083294;28;20106;-73
2023/12/11 11:57:15;;;;;;;9.40;8.65;;;;;;;;;;5081278;28;20074;-73
2023/12/11 11:59:48;;;;;;;10.27;9.45;;;;;;;;;;5081004;28;20090;-74
2023/12/11 12:02:23;;;;;;;12.13;11.25;;;;;;;;;;5082871;28;20062;-74
2023/12/11 12:04:55;;;;;;;11.27;10.57;;;;;;;;;;5082946;28;20490;-77
2023/12/11 12:07:25;;;;;;;11.50;10.57;;;;;;;;;;5082822;28;20047;-73
2023/12/11 12:09:59;;;;;;;9.52;8.70;;;;;;;;;;5081334;28;20529;-74
2023/12/11 12:12:31;;;;;;;11.38;10.38;;;;;;;;;;5083560;28;20044;-74
2023/12/11 12:15:10;;;;;;;11.10;10.35;;;;;;;;;;5080735;28;20498;-73
2023/12/11 12:17:42;;;;;;;10.00;9.05;;;;;;;;;;5082245;28;20044;-73
2023/12/11 12:20:14;;;;;;;14.80;13.68;;;;;;;;;;5082229;28;20044;-74
2023/12/11 12:23:01;;;;;;;9.23;8.63;;;;;;;;;;5081931;28;20619;-74
2023/12/11 12:25:32;;;;;;;10.85;10.18;;;;;;;;;;5081436;28;20047;-75
2023/12/11 12:28:13;;;;;;;13.10;12.20;;;;;;;;;;5082316;28;20055;-74
2023/12/11 12:30:44;;;;;;;11.75;10.60;;;;;;;;;;5082453;28;20106;-74
2023/12/11 12:33:15;;;;;;;8.85;7.57;;;;;;;;;;5082838;28;20044;-76
2023/12/11 12:35:46;;;;;;;12.45;11.30;;;;;;;;;;5081891;28;20044;-73
2023/12/11 12:38:16;;;;;;;8.20;7.43;;;;;;;;;;5081934;28;20048;-74
2023/12/11 12:40:46;;;;;;;8.60;7.75;;;;;;;;;;5081894;28;20690;-75
2023/12/11 12:43:17;;;;;;;11.70;10.73;;;;;;;;;;5082010;28;20525;-76
2023/12/11 12:45:48;;;;;;;9.60;8.63;;;;;;;;;;5082416;28;20048;-74
2023/12/11 12:48:28;;;;;;;6.20;5.80;;;;;;;;;;5081987;28;20044;-74
2023/12/11 12:51:09;;;;;;;7.25;6.70;;;;;;;;;;5082276;28;20062;-75
2023/12/11 12:53:51;;;;;;;5.97;5.57;;;;;;;;;;5082189;28;20507;-75
2023/12/11 12:56:23;;;;;;;9.48;8.75;;;;;;;;;;5081752;28;20052;-75
2023/12/11 12:58:57;;;;;;;7.22;6.75;;;;;;;;;;5082491;28;20410;-74
2023/12/11 13:01:27;;;;;;;10.13;9.15;;;;;;;;;;5082923;28;20410;-74
2023/12/11 13:04:00;;;;;;;13.38;12.52;;;;;;;;;;5082856;28;20056;-73
2023/12/11 13:06:32;;;;;;;11.88;11.07;;;;;;;;;;5082065;28;20433;-73
2023/12/11 13:09:03;;;;;;;13.43;12.65;;;;;;;;;;5081837;28;20048;-73
2023/12/11 13:11:50;;;;;;;11.48;10.43;;;;;;;;;;5081937;28;20044;-73
2023/12/11 13:14:20;;;;;;;11.35;10.65;;;;;;;;;;5081836;28;20049;-74
2023/12/11 13:16:50;;;;;;;12.25;11.55;;;;;;;;;;5081290;28;20745;-74
2023/12/11 13:19:23;;;;;;;9.20;8.38;;;;;;;;;;5080387;28;20503;-73
2023/12/11 13:21:54;;;;;;;13.35;12.50;;;;;;;;;;5081676;28;20094;-76
2023/12/11 13:24:24;;;;;;;9.00;8.40;;;;;;;;;;5081661;28;20052;-73
2023/12/11 13:26:55;;;;;;;12.65;10.00;;;;;;;;;;5081457;28;20051;-75
2023/12/11 13:29:25;;;;;;;8.93;8.43;;;;;;;;;;5081521;28;20044;-78
2023/12/11 13:31:58;;;;;;;14.30;13.27;;;;;;;;;;5082237;28;20051;-74
2023/12/11 13:34:27;;;;;;;11.63;10.85;;;;;;;;;;5082921;28;20040;-73
2023/12/11 13:36:58;;;;;;;11.63;10.82;;;;;;;;;;5082093;28;20040;-74
2023/12/11 13:39:29;;;;;;;10.38;9.77;;;;;;;;;;5083897;28;20044;-73
2023/12/11 13:41:59;;;;;;;17.60;16.13;;;;;;;;;;5085351;28;20044;-74
2023/12/11 13:44:29;;;;;;;10.85;10.07;;;;;;;;;;5085191;28;20414;-74
2023/12/11 13:46:59;;;;;;;21.70;20.00;;;;;;;;;;5085262;28;20048;-75
2023/12/11 13:49:30;;;;;;;12.82;12.05;;;;;;;;;;5085522;28;20060;-74
2023/12/11 13:52:00;;;;;;;7.72;7.13;;;;;;;;;;5085355;28;20052;-73
2023/12/11 13:54:30;;;;;;;11.18;10.38;;;;;;;;;;5085422;28;20082;-74
2023/12/11 13:57:00;;;;;;;11.95;11.25;;;;;;;;;;5084944;28;20048;-74
2023/12/11 13:59:30;;;;;;;14.38;13.45;;;;;;;;;;5085268;28;20524;-74
2023/12/11 14:02:01;;;;;;;12.57;11.70;;;;;;;;;;5085267;28;20054;-74
2023/12/11 14:04:31;;;;;;;14.82;13.90;;;;;;;;;;5085211;28;20090;-75
2023/12/11 14:07:01;;;;;;;9.05;8.45;;;;;;;;;;5084975;28;20044;-73
2023/12/11 14:09:33;;;;;;;9.18;8.50;;;;;;;;;;5085632;28;20040;-73
2023/12/11 14:12:05;;;;;;;12.20;11.38;;;;;;;;;;5085274;28;20411;-73
2023/12/11 14:14:37;;;;;;;11.30;10.68;;;;;;;;;;5085146;28;20051;-74
2023/12/11 14:17:07;;;;;;;10.90;8.25;;;;;;;;;;5085456;28;20048;-72
2023/12/11 14:19:37;;;;;;;11.40;10.70;;;;;;;;;;5083181;28;20063;-73
2023/12/11 14:22:07;;;;;;;12.88;11.57;;;;;;;;;;5084437;28;20486;-75
2023/12/11 14:24:37;;;;;;;6.95;6.32;;;;;;;;;;5083749;28;20052;-73
2023/12/11 14:27:12;;;;;;;10.13;9.13;;;;;;;;;;5084510;28;20056;-74
2023/12/11 14:29:42;;;;;;;12.73;11.85;;;;;;;;;;5083031;28;20056;-74
2023/12/11 14:32:12;;;;;;;8.35;7.85;;;;;;;;;;5083946;28;20076;-73
2023/12/11 14:34:43;;;;;;;7.20;6.60;;;;;;;;;;5083977;28;20070;-72
2023/12/11 14:37:16;;;;;;;8.18;7.68;;;;;;;;;;5083425;28;20062;-73
2023/12/11 14:39:47;;;;;;;10.02;9.35;;;;;;;;;;5083615;28;20051;-73
2023/12/11 14:42:19;;;;;;;8.82;8.23;;;;;;;;;;5084082;28;20052;-73
2023/12/11 14:44:50;;;;;;;10.15;9.48;;;;;;;;;;5083774;28;20048;-73
2023/12/11 14:47:20;;;;;;;15.98;14.45;;;;;;;;;;5083865;28;20063;-74
2023/12/11 14:49:51;;;;;;;10.20;8.13;;;;;;;;;;5083967;28;20062;-76
2023/12/11 14:52:22;;;;;;;8.75;8.25;;;;;;;;;;5084590;28;20056;-74
2023/12/11 14:54:53;;;;;;;6.78;6.38;;;;;;;;;;5085040;28;20787;-76
2023/12/11 14:57:23;;;;;;;7.93;7.38;;;;;;;;;;5081626;28;20066;-76
2023/12/11 14:59:53;;;;;;;12.98;12.18;;;;;;;;;;5085060;28;20051;-73